sensor_id;sensor_type;location;lat;lon;timestamp;P1;durP1;ratioP1;P2;durP2;ratioP2
34557;SDS011;24708;48.888;8.736;2023-05-10T05:31:58;8.68;;;2.85;;
34557;SDS011;24708;48.888;8.736;2023-05-10T05:34:26;3.10;;;2.60;;
34557;SDS011;24708;48.888;8.736;2023-05-10T05:36:53;3.65;;;2.95;;
34557;SDS011;24708;48.888;8.736;2023-05-10T05:39:22;5.78;;;4.35;;
34557;SDS011;24708;48.888;8.736;2023-05-10T05:41:50;5.18;;;3.33;;
34557;SDS011;24708;48.888;8.736;2023-05-10T05:44:17;6.13;;;4.28;;
34557;SDS011;24708;48.888;8.736;2023-05-10T05:46:46;2.92;;;2.17;;
34557;SDS011;24708;48.888;8.736;2023-05-10T05:49:13;3.65;;;2.53;;
34557;SDS011;24708;48.888;8.736;2023-05-10T05:51:41;6.00;;;3.72;;
34557;SDS011;24708;48.888;8.736;2023-05-10T05:54:09;5.70;;;3.03;;
34557;SDS011;24708;48.888;8.736;2023-05-10T05:56:37;10.15;;;2.53;;
34557;SDS011;24708;48.888;8.736;2023-05-10T05:59:04;3.85;;;2.17;;
34557;SDS011;24708;48.888;8.736;2023-05-10T06:01:32;2.85;;;1.83;;
34557;SDS011;24708;48.888;8.736;2023-05-10T06:04:00;1.73;;;1.63;;
34557;SDS011;24708;48.888;8.736;2023-05-10T06:06:28;4.25;;;1.80;;
34557;SDS011;24708;48.888;8.736;2023-05-10T06:08:56;2.35;;;1.40;;
34557;SDS011;24708;48.888;8.736;2023-05-10T06:11:23;2.25;;;1.40;;
34557;SDS011;24708;48.888;8.736;2023-05-10T06:13:52;3.05;;;1.30;;
34557;SDS011;24708;48.888;8.736;2023-05-10T06:16:19;2.45;;;1.40;;
34557;SDS011;24708;48.888;8.736;2023-05-10T06:18:47;1.73;;;1.13;;
34557;SDS011;24708;48.888;8.736;2023-05-10T06:21:16;2.33;;;1.15;;
34557;SDS011;24708;48.888;8.736;2023-05-10T06:23:45;1.63;;;1.02;;
34557;SDS011;24708;48.888;8.736;2023-05-10T06:26:12;1.08;;;0.80;;
34557;SDS011;24708;48.888;8.736;2023-05-10T06:28:40;1.58;;;0.98;;
34557;SDS011;24708;48.888;8.736;2023-05-10T06:31:08;2.72;;;1.05;;
34557;SDS011;24708;48.888;8.736;2023-05-10T06:33:37;1.70;;;0.80;;
34557;SDS011;24708;48.888;8.736;2023-05-10T06:36:05;6.15;;;1.40;;
34557;SDS011;24708;48.888;8.736;2023-05-10T06:38:32;2.50;;;1.10;;
34557;SDS011;24708;48.888;8.736;2023-05-10T06:41:00;1.20;;;1.02;;
34557;SDS011;24708;48.888;8.736;2023-05-10T06:43:28;1.10;;;0.80;;
34557;SDS011;24708;48.888;8.736;2023-05-10T06:45:55;2.22;;;0.98;;
34557;SDS011;24708;48.888;8.736;2023-05-10T06:48:23;1.50;;;0.85;;
34557;SDS011;24708;48.888;8.736;2023-05-10T06:50:50;0.55;;;0.40;;
34557;SDS011;24708;48.888;8.736;2023-05-10T06:53:20;1.98;;;0.90;;
34557;SDS011;24708;48.888;8.736;2023-05-10T06:55:48;2.45;;;0.95;;
34557;SDS011;24708;48.888;8.736;2023-05-10T06:58:16;3.22;;;0.85;;
34557;SDS011;24708;48.888;8.736;2023-05-10T07:00:43;4.38;;;0.70;;
34557;SDS011;24708;48.888;8.736;2023-05-10T07:03:12;2.80;;;1.00;;
34557;SDS011;24708;48.888;8.736;2023-05-10T07:05:40;6.22;;;0.70;;
34557;SDS011;24708;48.888;8.736;2023-05-10T07:08:07;2.58;;;0.68;;
34557;SDS011;24708;48.888;8.736;2023-05-10T07:10:35;1.27;;;0.68;;
34557;SDS011;24708;48.888;8.736;2023-05-10T07:13:03;1.77;;;0.47;;
34557;SDS011;24708;48.888;8.736;2023-05-10T07:15:31;0.50;;;0.47;;
34557;SDS011;24708;48.888;8.736;2023-05-10T07:18:00;8.52;;;0.80;;
34557;SDS011;24708;48.888;8.736;2023-05-10T07:20:28;0.73;;;0.60;;
34557;SDS011;24708;48.888;8.736;2023-05-10T07:22:57;0.57;;;0.50;;
34557;SDS011;24708;48.888;8.736;2023-05-10T07:25:25;1.98;;;0.60;;
34557;SDS011;24708;48.888;8.736;2023-05-10T07:27:52;1.50;;;0.75;;
34557;SDS011;24708;48.888;8.736;2023-05-10T07:30:20;0.57;;;0.40;;
34557;SDS011;24708;48.888;8.736;2023-05-10T07:32:48;0.88;;;0.47;;
34557;SDS011;24708;48.888;8.736;2023-05-10T07:35:15;1.80;;;0.82;;
34557;SDS011;24708;48.888;8.736;2023-05-10T07:37:44;1.00;;;0.50;;
34557;SDS011;24708;48.888;8.736;2023-05-10T07:40:11;1.33;;;0.65;;
34557;SDS011;24708;48.888;8.736;2023-05-10T07:42:39;1.55;;;0.40;;
34557;SDS011;24708;48.888;8.736;2023-05-10T07:45:06;4.10;;;0.75;;
34557;SDS011;24708;48.888;8.736;2023-05-10T07:47:34;4.20;;;1.23;;
34557;SDS011;24708;48.888;8.736;2023-05-10T07:50:02;1.60;;;0.90;;
34557;SDS011;24708;48.888;8.736;2023-05-10T07:52:30;0.88;;;0.70;;
34557;SDS011;24708;48.888;8.736;2023-05-10T07:54:59;3.38;;;0.55;;
34557;SDS011;24708;48.888;8.736;2023-05-10T07:57:27;0.60;;;0.60;;
34557;SDS011;24708;48.888;8.736;2023-05-10T07:59:55;1.60;;;0.43;;
34557;SDS011;24708;48.888;8.736;2023-05-10T08:02:23;0.60;;;0.38;;
34557;SDS011;24708;48.888;8.736;2023-05-10T08:04:51;4.85;;;0.50;;
34557;SDS011;24708;48.888;8.736;2023-05-10T08:07:20;1.48;;;0.50;;
34557;SDS011;24708;48.888;8.736;2023-05-10T08:09:56;1.58;;;0.50;;
34557;SDS011;24708;48.888;8.736;2023-05-10T08:12:26;1.20;;;0.65;;
34557;SDS011;24708;48.888;8.736;2023-05-10T08:14:54;6.55;;;0.40;;
34557;SDS011;24708;48.888;8.736;2023-05-10T08:17:22;0.55;;;0.32;;
34557;SDS011;24708;48.888;8.736;2023-05-10T08:19:50;0.22;;;0.20;;
34557;SDS011;24708;48.888;8.736;2023-05-10T08:22:20;0.50;;;0.30;;
34557;SDS011;24708;48.888;8.736;2023-05-10T08:24:48;0.30;;;0.20;;
34557;SDS011;24708;48.888;8.736;2023-05-10T08:27:16;1.88;;;0.30;;
34557;SDS011;24708;48.888;8.736;2023-05-10T08:29:46;0.50;;;0.40;;
34557;SDS011;24708;48.888;8.736;2023-05-10T08:32:16;0.63;;;0.35;;
34557;SDS011;24708;48.888;8.736;2023-05-10T08:34:45;0.32;;;0.22;;
34557;SDS011;24708;48.888;8.736;2023-05-10T08:37:13;0.60;;;0.45;;
34557;SDS011;24708;48.888;8.736;2023-05-10T08:39:42;0.68;;;0.32;;
34557;SDS011;24708;48.888;8.736;2023-05-10T08:42:10;1.30;;;0.40;;
34557;SDS011;24708;48.888;8.736;2023-05-10T08:44:40;4.30;;;0.57;;
34557;SDS011;24708;48.888;8.736;2023-05-10T08:47:09;2.47;;;0.28;;
34557;SDS011;24708;48.888;8.736;2023-05-10T08:49:38;0.30;;;0.30;;
34557;SDS011;24708;48.888;8.736;2023-05-10T08:52:06;0.80;;;0.35;;
34557;SDS011;24708;48.888;8.736;2023-05-10T08:54:35;0.52;;;0.30;;
34557;SDS011;24708;48.888;8.736;2023-05-10T08:57:03;7.28;;;0.40;;
34557;SDS011;24708;48.888;8.736;2023-05-10T08:59:31;0.65;;;0.35;;
34557;SDS011;24708;48.888;8.736;2023-05-10T09:01:59;2.35;;;0.28;;
34557;SDS011;24708;48.888;8.736;2023-05-10T09:04:27;1.17;;;0.43;;
34557;SDS011;24708;48.888;8.736;2023-05-10T09:06:57;0.30;;;0.30;;
34557;SDS011;24708;48.888;8.736;2023-05-10T09:09:25;0.25;;;0.15;;
34557;SDS011;24708;48.888;8.736;2023-05-10T09:11:52;1.38;;;0.50;;
34557;SDS011;24708;48.888;8.736;2023-05-10T09:14:20;0.88;;;0.47;;
34557;SDS011;24708;48.888;8.736;2023-05-10T09:16:51;0.90;;;0.50;;
34557;SDS011;24708;48.888;8.736;2023-05-10T09:19:20;0.32;;;0.20;;
34557;SDS011;24708;48.888;8.736;2023-05-10T09:21:48;0.80;;;0.55;;
34557;SDS011;24708;48.888;8.736;2023-05-10T09:24:16;2.20;;;0.70;;
34557;SDS011;24708;48.888;8.736;2023-05-10T09:26:45;3.47;;;1.60;;
34557;SDS011;24708;48.888;8.736;2023-05-10T09:29:16;1.05;;;0.75;;
34557;SDS011;24708;48.888;8.736;2023-05-10T09:31:45;6.10;;;0.70;;
34557;SDS011;24708;48.888;8.736;2023-05-10T09:34:15;1.83;;;0.50;;
34557;SDS011;24708;48.888;8.736;2023-05-10T09:36:52;0.45;;;0.40;;
34557;SDS011;24708;48.888;8.736;2023-05-10T09:39:35;4.88;;;0.52;;
34557;SDS011;24708;48.888;8.736;2023-05-10T09:42:05;2.25;;;0.43;;
34557;SDS011;24708;48.888;8.736;2023-05-10T09:44:40;2.58;;;0.40;;
34557;SDS011;24708;48.888;8.736;2023-05-10T09:47:10;0.40;;;0.40;;
34557;SDS011;24708;48.888;8.736;2023-05-10T09:49:39;1.05;;;0.40;;
34557;SDS011;24708;48.888;8.736;2023-05-10T09:52:08;0.43;;;0.43;;
34557;SDS011;24708;48.888;8.736;2023-05-10T09:54:36;9.40;;;0.43;;
34557;SDS011;24708;48.888;8.736;2023-05-10T09:57:05;2.90;;;0.50;;
34557;SDS011;24708;48.888;8.736;2023-05-10T09:59:42;3.38;;;0.50;;
34557;SDS011;24708;48.888;8.736;2023-05-10T10:02:11;1.38;;;0.60;;
34557;SDS011;24708;48.888;8.736;2023-05-10T10:04:40;0.90;;;0.60;;
34557;SDS011;24708;48.888;8.736;2023-05-10T10:07:08;2.05;;;0.40;;
34557;SDS011;24708;48.888;8.736;2023-05-10T10:09:36;0.75;;;0.40;;
34557;SDS011;24708;48.888;8.736;2023-05-10T10:12:03;0.52;;;0.32;;
34557;SDS011;24708;48.888;8.736;2023-05-10T10:14:31;2.25;;;0.60;;
34557;SDS011;24708;48.888;8.736;2023-05-10T10:17:00;2.75;;;0.80;;
34557;SDS011;24708;48.888;8.736;2023-05-10T10:19:34;1.40;;;0.50;;
34557;SDS011;24708;48.888;8.736;2023-05-10T10:22:03;4.93;;;0.55;;
34557;SDS011;24708;48.888;8.736;2023-05-10T10:24:31;0.40;;;0.40;;
34557;SDS011;24708;48.888;8.736;2023-05-10T10:27:06;3.38;;;0.60;;
34557;SDS011;24708;48.888;8.736;2023-05-10T10:30:04;1.00;;;0.40;;
34557;SDS011;24708;48.888;8.736;2023-05-10T10:32:38;2.85;;;0.90;;
34557;SDS011;24708;48.888;8.736;2023-05-10T10:35:42;1.33;;;0.50;;
34557;SDS011;24708;48.888;8.736;2023-05-10T10:38:13;5.80;;;1.00;;
34557;SDS011;24708;48.888;8.736;2023-05-10T10:40:40;3.08;;;0.60;;
34557;SDS011;24708;48.888;8.736;2023-05-10T10:43:24;2.17;;;0.63;;
34557;SDS011;24708;48.888;8.736;2023-05-10T10:48:41;1.42;;;0.43;;
34557;SDS011;24708;48.888;8.736;2023-05-10T10:51:14;1.05;;;0.40;;
34557;SDS011;24708;48.888;8.736;2023-05-10T10:53:42;5.32;;;0.77;;
34557;SDS011;24708;48.888;8.736;2023-05-10T10:56:10;0.90;;;0.50;;
34557;SDS011;24708;48.888;8.736;2023-05-10T10:58:40;2.75;;;0.70;;
34557;SDS011;24708;48.888;8.736;2023-05-10T11:01:14;2.47;;;0.70;;
34557;SDS011;24708;48.888;8.736;2023-05-10T11:06:33;3.08;;;0.93;;
34557;SDS011;24708;48.888;8.736;2023-05-10T11:09:08;0.32;;;0.28;;
34557;SDS011;24708;48.888;8.736;2023-05-10T11:11:48;0.98;;;0.55;;
34557;SDS011;24708;48.888;8.736;2023-05-10T11:14:22;2.30;;;0.93;;
34557;SDS011;24708;48.888;8.736;2023-05-10T11:16:49;2.17;;;0.73;;
34557;SDS011;24708;48.888;8.736;2023-05-10T11:19:17;1.02;;;0.50;;
34557;SDS011;24708;48.888;8.736;2023-05-10T11:24:15;1.80;;;0.93;;
34557;SDS011;24708;48.888;8.736;2023-05-10T11:26:53;1.70;;;0.43;;
34557;SDS011;24708;48.888;8.736;2023-05-10T11:29:21;2.83;;;0.70;;
34557;SDS011;24708;48.888;8.736;2023-05-10T11:31:52;1.75;;;1.15;;
34557;SDS011;24708;48.888;8.736;2023-05-10T11:34:28;5.03;;;0.60;;
34557;SDS011;24708;48.888;8.736;2023-05-10T11:37:02;11.27;;;1.07;;
34557;SDS011;24708;48.888;8.736;2023-05-10T11:39:31;2.35;;;0.80;;
34557;SDS011;24708;48.888;8.736;2023-05-10T11:42:00;1.33;;;0.30;;
34557;SDS011;24708;48.888;8.736;2023-05-10T11:44:33;1.17;;;0.38;;
34557;SDS011;24708;48.888;8.736;2023-05-10T11:47:06;1.15;;;0.40;;
34557;SDS011;24708;48.888;8.736;2023-05-10T11:49:34;1.15;;;0.65;;
34557;SDS011;24708;48.888;8.736;2023-05-10T11:52:06;3.90;;;0.60;;
34557;SDS011;24708;48.888;8.736;2023-05-10T11:54:33;0.93;;;0.50;;
34557;SDS011;24708;48.888;8.736;2023-05-10T11:57:01;0.50;;;0.50;;
34557;SDS011;24708;48.888;8.736;2023-05-10T11:59:30;2.60;;;0.95;;
34557;SDS011;24708;48.888;8.736;2023-05-10T12:01:58;0.63;;;0.40;;
34557;SDS011;24708;48.888;8.736;2023-05-10T12:04:26;5.90;;;0.55;;
34557;SDS011;24708;48.888;8.736;2023-05-10T12:06:56;3.30;;;0.50;;
34557;SDS011;24708;48.888;8.736;2023-05-10T12:09:25;0.60;;;0.40;;
34557;SDS011;24708;48.888;8.736;2023-05-10T12:12:10;1.55;;;0.50;;
34557;SDS011;24708;48.888;8.736;2023-05-10T12:14:50;0.98;;;0.57;;
34557;SDS011;24708;48.888;8.736;2023-05-10T12:17:17;3.33;;;0.38;;
34557;SDS011;24708;48.888;8.736;2023-05-10T12:19:45;1.65;;;0.70;;
34557;SDS011;24708;48.888;8.736;2023-05-10T12:22:13;2.00;;;0.60;;
34557;SDS011;24708;48.888;8.736;2023-05-10T12:24:41;2.25;;;0.50;;
34557;SDS011;24708;48.888;8.736;2023-05-10T12:27:09;3.67;;;0.55;;
34557;SDS011;24708;48.888;8.736;2023-05-10T12:29:58;7.28;;;0.52;;
34557;SDS011;24708;48.888;8.736;2023-05-10T12:32:39;1.75;;;0.50;;
34557;SDS011;24708;48.888;8.736;2023-05-10T12:35:07;0.98;;;0.68;;
34557;SDS011;24708;48.888;8.736;2023-05-10T12:37:35;1.67;;;0.50;;
34557;SDS011;24708;48.888;8.736;2023-05-10T12:40:06;6.30;;;0.95;;
34557;SDS011;24708;48.888;8.736;2023-05-10T12:42:35;2.25;;;0.73;;
34557;SDS011;24708;48.888;8.736;2023-05-10T12:45:03;1.63;;;0.40;;
34557;SDS011;24708;48.888;8.736;2023-05-10T12:47:32;3.38;;;0.40;;
34557;SDS011;24708;48.888;8.736;2023-05-10T12:50:07;4.05;;;1.70;;
34557;SDS011;24708;48.888;8.736;2023-05-10T12:52:35;3.45;;;0.63;;
34557;SDS011;24708;48.888;8.736;2023-05-10T12:55:02;1.42;;;0.50;;
34557;SDS011;24708;48.888;8.736;2023-05-10T12:57:29;0.98;;;0.50;;
34557;SDS011;24708;48.888;8.736;2023-05-10T12:59:57;1.00;;;0.38;;
34557;SDS011;24708;48.888;8.736;2023-05-10T13:02:24;1.33;;;0.65;;
34557;SDS011;24708;48.888;8.736;2023-05-10T13:04:54;2.03;;;0.70;;
34557;SDS011;24708;48.888;8.736;2023-05-10T13:07:21;0.82;;;0.75;;
34557;SDS011;24708;48.888;8.736;2023-05-10T13:09:49;5.97;;;0.50;;
34557;SDS011;24708;48.888;8.736;2023-05-10T13:12:16;3.60;;;0.60;;
34557;SDS011;24708;48.888;8.736;2023-05-10T13:14:44;1.55;;;0.75;;
34557;SDS011;24708;48.888;8.736;2023-05-10T13:17:11;2.28;;;0.50;;
34557;SDS011;24708;48.888;8.736;2023-05-10T13:19:38;0.55;;;0.35;;
34557;SDS011;24708;48.888;8.736;2023-05-10T13:22:05;2.72;;;0.52;;
34557;SDS011;24708;48.888;8.736;2023-05-10T13:24:33;2.00;;;0.88;;
34557;SDS011;24708;48.888;8.736;2023-05-10T13:27:01;1.20;;;0.40;;
34557;SDS011;24708;48.888;8.736;2023-05-10T13:29:28;1.40;;;0.52;;
34557;SDS011;24708;48.888;8.736;2023-05-10T13:31:56;4.32;;;0.70;;
34557;SDS011;24708;48.888;8.736;2023-05-10T13:34:23;0.88;;;0.52;;
34557;SDS011;24708;48.888;8.736;2023-05-10T13:36:50;0.63;;;0.40;;
34557;SDS011;24708;48.888;8.736;2023-05-10T13:39:20;0.85;;;0.40;;
34557;SDS011;24708;48.888;8.736;2023-05-10T13:41:47;3.85;;;0.60;;
34557;SDS011;24708;48.888;8.736;2023-05-10T13:44:14;3.85;;;0.70;;
34557;SDS011;24708;48.888;8.736;2023-05-10T13:46:42;1.35;;;0.30;;
34557;SDS011;24708;48.888;8.736;2023-05-10T13:49:10;7.55;;;0.50;;
34557;SDS011;24708;48.888;8.736;2023-05-10T13:51:37;1.90;;;0.82;;
34557;SDS011;24708;48.888;8.736;2023-05-10T13:54:04;1.02;;;0.52;;
34557;SDS011;24708;48.888;8.736;2023-05-10T13:56:32;3.58;;;0.60;;
34557;SDS011;24708;48.888;8.736;2023-05-10T13:58:59;5.00;;;0.43;;
34557;SDS011;24708;48.888;8.736;2023-05-10T14:01:27;0.73;;;0.28;;
34557;SDS011;24708;48.888;8.736;2023-05-10T14:03:54;3.45;;;0.50;;
34557;SDS011;24708;48.888;8.736;2023-05-10T14:06:21;8.55;;;0.45;;
34557;SDS011;24708;48.888;8.736;2023-05-10T14:08:49;0.52;;;0.30;;
34557;SDS011;24708;48.888;8.736;2023-05-10T14:11:16;0.43;;;0.38;;
34557;SDS011;24708;48.888;8.736;2023-05-10T14:13:44;3.70;;;0.50;;
34557;SDS011;24708;48.888;8.736;2023-05-10T14:16:11;3.60;;;0.40;;
34557;SDS011;24708;48.888;8.736;2023-05-10T14:18:41;0.73;;;0.28;;
34557;SDS011;24708;48.888;8.736;2023-05-10T14:21:08;6.30;;;0.47;;
34557;SDS011;24708;48.888;8.736;2023-05-10T14:23:36;0.52;;;0.20;;
34557;SDS011;24708;48.888;8.736;2023-05-10T14:26:03;2.53;;;0.70;;
34557;SDS011;24708;48.888;8.736;2023-05-10T14:28:32;2.70;;;0.60;;
34557;SDS011;24708;48.888;8.736;2023-05-10T14:30:59;1.83;;;0.30;;
34557;SDS011;24708;48.888;8.736;2023-05-10T14:33:26;0.98;;;0.32;;
34557;SDS011;24708;48.888;8.736;2023-05-10T14:35:53;2.50;;;0.30;;
34557;SDS011;24708;48.888;8.736;2023-05-10T14:38:23;1.70;;;0.50;;
34557;SDS011;24708;48.888;8.736;2023-05-10T14:40:50;0.35;;;0.20;;
34557;SDS011;24708;48.888;8.736;2023-05-10T14:43:17;1.02;;;0.22;;
34557;SDS011;24708;48.888;8.736;2023-05-10T14:45:45;1.30;;;0.38;;
34557;SDS011;24708;48.888;8.736;2023-05-10T14:48:12;1.20;;;0.50;;
34557;SDS011;24708;48.888;8.736;2023-05-10T14:50:43;1.65;;;0.50;;
34557;SDS011;24708;48.888;8.736;2023-05-10T14:53:10;0.63;;;0.40;;
34557;SDS011;24708;48.888;8.736;2023-05-10T14:55:38;5.50;;;0.40;;
34557;SDS011;24708;48.888;8.736;2023-05-10T14:58:05;0.93;;;0.40;;
34557;SDS011;24708;48.888;8.736;2023-05-10T15:00:32;0.77;;;0.32;;
34557;SDS011;24708;48.888;8.736;2023-05-10T15:03:00;0.50;;;0.40;;
34557;SDS011;24708;48.888;8.736;2023-05-10T15:05:28;0.95;;;0.50;;
34557;SDS011;24708;48.888;8.736;2023-05-10T15:07:56;0.68;;;0.40;;
34557;SDS011;24708;48.888;8.736;2023-05-10T15:10:23;1.10;;;0.32;;
34557;SDS011;24708;48.888;8.736;2023-05-10T15:12:51;6.65;;;0.55;;
34557;SDS011;24708;48.888;8.736;2023-05-10T15:15:19;0.30;;;0.30;;
34557;SDS011;24708;48.888;8.736;2023-05-10T15:17:47;3.88;;;0.63;;
34557;SDS011;24708;48.888;8.736;2023-05-10T15:20:14;0.88;;;0.30;;
34557;SDS011;24708;48.888;8.736;2023-05-10T15:22:42;0.40;;;0.40;;
34557;SDS011;24708;48.888;8.736;2023-05-10T15:25:09;0.40;;;0.30;;
34557;SDS011;24708;48.888;8.736;2023-05-10T15:27:36;0.57;;;0.32;;
34557;SDS011;24708;48.888;8.736;2023-05-10T15:30:03;0.75;;;0.40;;
34557;SDS011;24708;48.888;8.736;2023-05-10T15:32:31;5.35;;;0.93;;
34557;SDS011;24708;48.888;8.736;2023-05-10T15:34:58;0.60;;;0.50;;
34557;SDS011;24708;48.888;8.736;2023-05-10T15:37:26;1.45;;;0.60;;
34557;SDS011;24708;48.888;8.736;2023-05-10T15:39:53;2.95;;;0.82;;
34557;SDS011;24708;48.888;8.736;2023-05-10T15:42:29;1.05;;;0.52;;
34557;SDS011;24708;48.888;8.736;2023-05-10T15:44:58;1.80;;;0.40;;
34557;SDS011;24708;48.888;8.736;2023-05-10T15:47:26;0.55;;;0.43;;
34557;SDS011;24708;48.888;8.736;2023-05-10T15:49:56;7.07;;;0.47;;
34557;SDS011;24708;48.888;8.736;2023-05-10T15:52:23;0.38;;;0.30;;
34557;SDS011;24708;48.888;8.736;2023-05-10T15:54:51;2.63;;;0.40;;
34557;SDS011;24708;48.888;8.736;2023-05-10T15:57:18;1.27;;;0.47;;
34557;SDS011;24708;48.888;8.736;2023-05-10T15:59:45;2.05;;;0.47;;
